sensor_id;sensor_type;location;lat;lon;timestamp;temperature;humidity
29687;DHT22;16599;47.078;15.536;2022-12-01T00:01:13;2.90;99.90
29687;DHT22;16599;47.078;15.536;2022-12-01T00:03:40;2.90;99.90
29687;DHT22;16599;47.078;15.536;2022-12-01T00:06:15;2.90;99.90
29687;DHT22;16599;47.078;15.536;2022-12-01T00:08:44;2.90;99.90
29687;DHT22;16599;47.078;15.536;2022-12-01T00:11:29;2.90;99.90
29687;DHT22;16599;47.078;15.536;2022-12-01T00:13:56;2.90;99.90
29687;DHT22;16599;47.078;15.536;2022-12-01T00:16:23;2.90;99.90
29687;DHT22;16599;47.078;15.536;2022-12-01T00:18:51;2.90;99.90
29687;DHT22;16599;47.078;15.536;2022-12-01T00:21:21;2.80;99.90
29687;DHT22;16599;47.078;15.536;2022-12-01T00:23:53;2.90;99.90
29687;DHT22;16599;47.078;15.536;2022-12-01T00:26:21;2.90;99.90
29687;DHT22;16599;47.078;15.536;2022-12-01T00:28:49;2.80;99.90
29687;DHT22;16599;47.078;15.536;2022-12-01T00:31:16;2.80;99.90
29687;DHT22;16599;47.078;15.536;2022-12-01T00:33:43;2.90;99.90
29687;DHT22;16599;47.078;15.536;2022-12-01T00:36:10;2.90;99.90
29687;DHT22;16599;47.078;15.536;2022-12-01T00:38:38;2.90;99.90
29687;DHT22;16599;47.078;15.536;2022-12-01T00:41:05;2.90;99.90
29687;DHT22;16599;47.078;15.536;2022-12-01T00:43:32;2.90;99.90
29687;DHT22;16599;47.078;15.536;2022-12-01T00:45:58;2.90;99.90
29687;DHT22;16599;47.078;15.536;2022-12-01T00:48:25;2.90;99.90
29687;DHT22;16599;47.078;15.536;2022-12-01T00:50:54;2.80;99.90
29687;DHT22;16599;47.078;15.536;2022-12-01T00:53:21;2.90;99.90
29687;DHT22;16599;47.078;15.536;2022-12-01T00:55:49;2.80;99.90
29687;DHT22;16599;47.078;15.536;2022-12-01T00:58:15;2.80;99.90
29687;DHT22;16599;47.078;15.536;2022-12-01T01:00:42;2.80;99.90
29687;DHT22;16599;47.078;15.536;2022-12-01T01:03:10;2.70;99.90
29687;DHT22;16599;47.078;15.536;2022-12-01T01:05:40;2.70;99.90
29687;DHT22;16599;47.078;15.536;2022-12-01T01:08:09;2.80;99.90
29687;DHT22;16599;47.078;15.536;2022-12-01T01:10:37;2.80;99.90
29687;DHT22;16599;47.078;15.536;2022-12-01T01:13:05;2.80;99.90
29687;DHT22;16599;47.078;15.536;2022-12-01T01:15:32;2.80;99.90
29687;DHT22;16599;47.078;15.536;2022-12-01T01:17:59;2.60;99.90
29687;DHT22;16599;47.078;15.536;2022-12-01T01:20:26;2.60;99.90
29687;DHT22;16599;47.078;15.536;2022-12-01T01:22:52;2.70;99.90
29687;DHT22;16599;47.078;15.536;2022-12-01T01:25:19;2.70;99.90
29687;DHT22;16599;47.078;15.536;2022-12-01T01:27:46;2.70;99.90
29687;DHT22;16599;47.078;15.536;2022-12-01T01:30:13;2.80;99.90
29687;DHT22;16599;47.078;15.536;2022-12-01T01:32:40;2.80;99.90
29687;DHT22;16599;47.078;15.536;2022-12-01T01:35:07;2.80;99.90
29687;DHT22;16599;47.078;15.536;2022-12-01T01:37:34;2.70;99.90
29687;DHT22;16599;47.078;15.536;2022-12-01T01:40:00;2.70;99.90
29687;DHT22;16599;47.078;15.536;2022-12-01T01:42:27;2.60;99.90
29687;DHT22;16599;47.078;15.536;2022-12-01T01:44:56;2.60;99.90
29687;DHT22;16599;47.078;15.536;2022-12-01T01:47:33;2.60;99.90
29687;DHT22;16599;47.078;15.536;2022-12-01T01:50:06;2.60;99.90
29687;DHT22;16599;47.078;15.536;2022-12-01T01:52:37;2.70;99.90
29687;DHT22;16599;47.078;15.536;2022-12-01T01:55:06;2.50;99.90
29687;DHT22;16599;47.078;15.536;2022-12-01T01:57:33;2.50;99.90
29687;DHT22;16599;47.078;15.536;2022-12-01T02:00:12;2.60;99.90
29687;DHT22;16599;47.078;15.536;2022-12-01T02:02:41;2.60;99.90
29687;DHT22;16599;47.078;15.536;2022-12-01T02:05:17;2.60;99.90
29687;DHT22;16599;47.078;15.536;2022-12-01T02:07:46;2.60;99.90
29687;DHT22;16599;47.078;15.536;2022-12-01T02:10:14;2.60;99.90
29687;DHT22;16599;47.078;15.536;2022-12-01T02:18:55;2.60;99.90
29687;DHT22;16599;47.078;15.536;2022-12-01T02:30:16;2.50;99.90
29687;DHT22;16599;47.078;15.536;2022-12-01T02:38:18;2.50;99.90
29687;DHT22;16599;47.078;15.536;2022-12-01T02:41:00;2.50;99.90
29687;DHT22;16599;47.078;15.536;2022-12-01T02:43:43;2.40;99.90
29687;DHT22;16599;47.078;15.536;2022-12-01T02:46:16;2.40;99.90
29687;DHT22;16599;47.078;15.536;2022-12-01T02:48:44;2.40;99.90
29687;DHT22;16599;47.078;15.536;2022-12-01T02:51:16;2.50;99.90
29687;DHT22;16599;47.078;15.536;2022-12-01T02:53:45;2.50;99.90
29687;DHT22;16599;47.078;15.536;2022-12-01T02:56:13;2.30;99.90
29687;DHT22;16599;47.078;15.536;2022-12-01T02:58:42;2.30;99.90
29687;DHT22;16599;47.078;15.536;2022-12-01T03:04:01;2.30;99.90
29687;DHT22;16599;47.078;15.536;2022-12-01T03:12:21;2.30;99.90
29687;DHT22;16599;47.078;15.536;2022-12-01T03:17:43;2.30;99.90
29687;DHT22;16599;47.078;15.536;2022-12-01T03:20:23;2.20;99.90
29687;DHT22;16599;47.078;15.536;2022-12-01T03:22:57;2.20;99.90
29687;DHT22;16599;47.078;15.536;2022-12-01T03:25:27;2.10;99.90
29687;DHT22;16599;47.078;15.536;2022-12-01T03:27:56;2.10;99.90
29687;DHT22;16599;47.078;15.536;2022-12-01T03:30:45;2.10;99.90
29687;DHT22;16599;47.078;15.536;2022-12-01T03:33:22;2.10;99.90
29687;DHT22;16599;47.078;15.536;2022-12-01T03:35:54;2.20;99.90
29687;DHT22;16599;47.078;15.536;2022-12-01T03:38:24;2.20;99.90
29687;DHT22;16599;47.078;15.536;2022-12-01T03:40:57;2.20;99.90
29687;DHT22;16599;47.078;15.536;2022-12-01T03:43:31;2.10;99.90
29687;DHT22;16599;47.078;15.536;2022-12-01T03:46:18;2.10;99.90
29687;DHT22;16599;47.078;15.536;2022-12-01T03:48:49;2.00;99.90
29687;DHT22;16599;47.078;15.536;2022-12-01T03:51:33;2.00;99.90
29687;DHT22;16599;47.078;15.536;2022-12-01T03:56:49;1.90;99.90
29687;DHT22;16599;47.078;15.536;2022-12-01T03:59:19;1.90;99.90
29687;DHT22;16599;47.078;15.536;2022-12-01T04:01:47;2.00;99.90
29687;DHT22;16599;47.078;15.536;2022-12-01T04:04:14;2.00;99.90
29687;DHT22;16599;47.078;15.536;2022-12-01T04:06:44;2.00;99.90
29687;DHT22;16599;47.078;15.536;2022-12-01T04:09:11;2.00;99.90
29687;DHT22;16599;47.078;15.536;2022-12-01T04:11:38;2.00;99.90
29687;DHT22;16599;47.078;15.536;2022-12-01T04:14:24;2.10;99.90
29687;DHT22;16599;47.078;15.536;2022-12-01T04:16:51;2.20;99.90
29687;DHT22;16599;47.078;15.536;2022-12-01T04:19:17;2.20;99.90
29687;DHT22;16599;47.078;15.536;2022-12-01T04:21:44;2.10;99.90
29687;DHT22;16599;47.078;15.536;2022-12-01T04:24:12;2.00;99.90
29687;DHT22;16599;47.078;15.536;2022-12-01T04:26:39;2.00;99.90
29687;DHT22;16599;47.078;15.536;2022-12-01T04:29:09;2.00;99.90
29687;DHT22;16599;47.078;15.536;2022-12-01T04:31:36;1.90;99.90
29687;DHT22;16599;47.078;15.536;2022-12-01T04:34:04;1.90;99.90
29687;DHT22;16599;47.078;15.536;2022-12-01T04:36:32;2.00;99.90
29687;DHT22;16599;47.078;15.536;2022-12-01T04:39:00;1.90;99.90
29687;DHT22;16599;47.078;15.536;2022-12-01T04:41:27;1.80;99.90
29687;DHT22;16599;47.078;15.536;2022-12-01T04:43:54;1.80;99.90
29687;DHT22;16599;47.078;15.536;2022-12-01T04:46:22;1.80;99.90
29687;DHT22;16599;47.078;15.536;2022-12-01T04:48:49;1.90;99.90
29687;DHT22;16599;47.078;15.536;2022-12-01T04:51:17;2.10;99.90
29687;DHT22;16599;47.078;15.536;2022-12-01T04:53:44;2.00;99.90
29687;DHT22;16599;47.078;15.536;2022-12-01T04:56:10;2.10;99.90
29687;DHT22;16599;47.078;15.536;2022-12-01T04:58:38;2.20;99.90
29687;DHT22;16599;47.078;15.536;2022-12-01T05:01:11;2.20;99.90
29687;DHT22;16599;47.078;15.536;2022-12-01T05:03:39;2.20;99.90
29687;DHT22;16599;47.078;15.536;2022-12-01T05:06:12;2.20;99.90
29687;DHT22;16599;47.078;15.536;2022-12-01T05:08:40;2.20;99.90
29687;DHT22;16599;47.078;15.536;2022-12-01T05:11:07;2.20;99.90
29687;DHT22;16599;47.078;15.536;2022-12-01T05:13:39;2.20;99.90
29687;DHT22;16599;47.078;15.536;2022-12-01T05:16:09;2.20;99.90
29687;DHT22;16599;47.078;15.536;2022-12-01T05:18:36;2.20;99.90
29687;DHT22;16599;47.078;15.536;2022-12-01T05:21:06;2.20;99.90
29687;DHT22;16599;47.078;15.536;2022-12-01T05:23:35;2.30;99.90
29687;DHT22;16599;47.078;15.536;2022-12-01T05:26:04;2.30;99.90
29687;DHT22;16599;47.078;15.536;2022-12-01T05:28:31;2.30;99.90
29687;DHT22;16599;47.078;15.536;2022-12-01T05:30:58;2.30;99.90
29687;DHT22;16599;47.078;15.536;2022-12-01T05:33:26;2.30;99.90
29687;DHT22;16599;47.078;15.536;2022-12-01T05:35:53;2.30;99.90
29687;DHT22;16599;47.078;15.536;2022-12-01T05:38:20;2.30;99.90
29687;DHT22;16599;47.078;15.536;2022-12-01T05:40:51;2.30;99.90
29687;DHT22;16599;47.078;15.536;2022-12-01T05:43:20;2.30;99.90
29687;DHT22;16599;47.078;15.536;2022-12-01T05:45:54;2.30;99.90
29687;DHT22;16599;47.078;15.536;2022-12-01T05:48:21;2.30;99.90
29687;DHT22;16599;47.078;15.536;2022-12-01T05:50:48;2.30;99.90
29687;DHT22;16599;47.078;15.536;2022-12-01T05:53:15;2.20;99.90
29687;DHT22;16599;47.078;15.536;2022-12-01T05:55:42;2.00;99.90
29687;DHT22;16599;47.078;15.536;2022-12-01T05:58:09;1.80;99.90
29687;DHT22;16599;47.078;15.536;2022-12-01T06:00:36;1.90;99.90
29687;DHT22;16599;47.078;15.536;2022-12-01T06:03:11;2.00;99.90
29687;DHT22;16599;47.078;15.536;2022-12-01T06:05:38;2.10;99.90
29687;DHT22;16599;47.078;15.536;2022-12-01T06:08:06;2.10;99.90
29687;DHT22;16599;47.078;15.536;2022-12-01T06:10:33;2.10;99.90
29687;DHT22;16599;47.078;15.536;2022-12-01T06:13:00;2.20;99.90
29687;DHT22;16599;47.078;15.536;2022-12-01T06:15:27;2.20;99.90
29687;DHT22;16599;47.078;15.536;2022-12-01T06:17:54;2.10;99.90
29687;DHT22;16599;47.078;15.536;2022-12-01T06:20:24;2.10;99.90
29687;DHT22;16599;47.078;15.536;2022-12-01T06:22:51;2.00;99.90
29687;DHT22;16599;47.078;15.536;2022-12-01T06:25:18;1.90;99.90
29687;DHT22;16599;47.078;15.536;2022-12-01T06:27:44;2.00;99.90
29687;DHT22;16599;47.078;15.536;2022-12-01T06:30:11;2.10;99.90
29687;DHT22;16599;47.078;15.536;2022-12-01T06:32:38;2.10;99.90
29687;DHT22;16599;47.078;15.536;2022-12-01T06:35:05;2.10;99.90
29687;DHT22;16599;47.078;15.536;2022-12-01T06:37:32;2.20;99.90
29687;DHT22;16599;47.078;15.536;2022-12-01T06:39:59;2.10;99.90
29687;DHT22;16599;47.078;15.536;2022-12-01T06:42:28;2.20;99.90
29687;DHT22;16599;47.078;15.536;2022-12-01T06:44:56;2.20;99.90
29687;DHT22;16599;47.078;15.536;2022-12-01T06:47:22;2.20;99.90
29687;DHT22;16599;47.078;15.536;2022-12-01T06:49:49;2.10;99.90
29687;DHT22;16599;47.078;15.536;2022-12-01T06:52:17;2.10;99.90
29687;DHT22;16599;47.078;15.536;2022-12-01T06:54:43;2.00;99.90
29687;DHT22;16599;47.078;15.536;2022-12-01T06:57:11;2.00;99.90
29687;DHT22;16599;47.078;15.536;2022-12-01T06:59:38;2.00;99.90
29687;DHT22;16599;47.078;15.536;2022-12-01T07:02:05;2.10;99.90
29687;DHT22;16599;47.078;15.536;2022-12-01T07:04:32;1.90;99.90
29687;DHT22;16599;47.078;15.536;2022-12-01T07:06:59;1.90;99.90
29687;DHT22;16599;47.078;15.536;2022-12-01T07:09:26;1.80;99.90
29687;DHT22;16599;47.078;15.536;2022-12-01T07:11:53;1.90;99.90
29687;DHT22;16599;47.078;15.536;2022-12-01T07:14:24;1.80;99.90
29687;DHT22;16599;47.078;15.536;2022-12-01T07:16:52;1.70;99.90
29687;DHT22;16599;47.078;15.536;2022-12-01T07:19:19;1.80;99.90
29687;DHT22;16599;47.078;15.536;2022-12-01T07:21:46;1.90;99.90
29687;DHT22;16599;47.078;15.536;2022-12-01T07:24:13;1.80;99.90
29687;DHT22;16599;47.078;15.536;2022-12-01T07:26:40;1.70;99.90
29687;DHT22;16599;47.078;15.536;2022-12-01T07:29:08;1.60;99.90
29687;DHT22;16599;47.078;15.536;2022-12-01T07:31:36;1.80;99.90
29687;DHT22;16599;47.078;15.536;2022-12-01T07:34:03;1.80;99.90
29687;DHT22;16599;47.078;15.536;2022-12-01T07:36:30;1.70;99.90
29687;DHT22;16599;47.078;15.536;2022-12-01T07:38:57;1.70;99.90
29687;DHT22;16599;47.078;15.536;2022-12-01T07:41:24;1.70;99.90
29687;DHT22;16599;47.078;15.536;2022-12-01T07:43:51;1.60;99.90
29687;DHT22;16599;47.078;15.536;2022-12-01T07:46:20;1.60;99.90
29687;DHT22;16599;47.078;15.536;2022-12-01T07:48:51;1.50;99.90
29687;DHT22;16599;47.078;15.536;2022-12-01T07:51:19;1.50;99.90
29687;DHT22;16599;47.078;15.536;2022-12-01T07:53:47;1.40;99.90
29687;DHT22;16599;47.078;15.536;2022-12-01T07:56:15;1.50;99.90
29687;DHT22;16599;47.078;15.536;2022-12-01T07:58:42;1.40;99.90
29687;DHT22;16599;47.078;15.536;2022-12-01T08:01:11;1.30;99.90
29687;DHT22;16599;47.078;15.536;2022-12-01T08:03:39;1.40;99.90
29687;DHT22;16599;47.078;15.536;2022-12-01T08:06:07;1.50;99.90
29687;DHT22;16599;47.078;15.536;2022-12-01T08:08:36;1.50;99.90
29687;DHT22;16599;47.078;15.536;2022-12-01T08:11:23;1.50;99.90
29687;DHT22;16599;47.078;15.536;2022-12-01T08:13:51;1.40;99.90
29687;DHT22;16599;47.078;15.536;2022-12-01T08:16:20;1.50;99.90
29687;DHT22;16599;47.078;15.536;2022-12-01T08:18:48;1.50;99.90
29687;DHT22;16599;47.078;15.536;2022-12-01T08:21:17;1.50;99.90
29687;DHT22;16599;47.078;15.536;2022-12-01T08:23:45;1.50;99.90
29687;DHT22;16599;47.078;15.536;2022-12-01T08:26:14;1.50;99.90
29687;DHT22;16599;47.078;15.536;2022-12-01T08:28:42;1.50;99.90
29687;DHT22;16599;47.078;15.536;2022-12-01T08:31:17;1.60;99.90
29687;DHT22;16599;47.078;15.536;2022-12-01T08:33:45;1.50;99.90
29687;DHT22;16599;47.078;15.536;2022-12-01T08:36:13;1.60;99.90
29687;DHT22;16599;47.078;15.536;2022-12-01T08:38:45;1.60;99.90
29687;DHT22;16599;47.078;15.536;2022-12-01T08:41:12;1.60;99.90
29687;DHT22;16599;47.078;15.536;2022-12-01T08:43:40;1.70;99.90
29687;DHT22;16599;47.078;15.536;2022-12-01T08:46:28;1.80;99.90
29687;DHT22;16599;47.078;15.536;2022-12-01T08:48:56;1.90;99.90
29687;DHT22;16599;47.078;15.536;2022-12-01T08:51:24;1.90;99.90
29687;DHT22;16599;47.078;15.536;2022-12-01T08:53:51;2.00;99.90
29687;DHT22;16599;47.078;15.536;2022-12-01T08:56:29;2.00;99.90
29687;DHT22;16599;47.078;15.536;2022-12-01T08:58:56;2.10;99.90
29687;DHT22;16599;47.078;15.536;2022-12-01T09:01:23;2.00;99.90
29687;DHT22;16599;47.078;15.536;2022-12-01T09:03:51;2.00;99.90
29687;DHT22;16599;47.078;15.536;2022-12-01T09:06:34;2.00;99.90
29687;DHT22;16599;47.078;15.536;2022-12-01T09:09:03;2.10;99.90
29687;DHT22;16599;47.078;15.536;2022-12-01T09:11:30;2.10;99.90
29687;DHT22;16599;47.078;15.536;2022-12-01T09:13:58;2.10;99.90
29687;DHT22;16599;47.078;15.536;2022-12-01T09:16:27;2.00;99.90
29687;DHT22;16599;47.078;15.536;2022-12-01T09:18:55;2.00;99.90
29687;DHT22;16599;47.078;15.536;2022-12-01T09:21:27;2.10;99.90
29687;DHT22;16599;47.078;15.536;2022-12-01T09:23:57;2.10;99.90
29687;DHT22;16599;47.078;15.536;2022-12-01T09:26:25;2.20;99.90
29687;DHT22;16599;47.078;15.536;2022-12-01T09:28:53;2.30;99.90
29687;DHT22;16599;47.078;15.536;2022-12-01T09:31:21;2.30;99.90
29687;DHT22;16599;47.078;15.536;2022-12-01T09:34:00;2.20;99.90
29687;DHT22;16599;47.078;15.536;2022-12-01T09:36:28;2.30;99.90
29687;DHT22;16599;47.078;15.536;2022-12-01T09:38:56;2.30;99.90
29687;DHT22;16599;47.078;15.536;2022-12-01T09:41:39;2.30;99.90
29687;DHT22;16599;47.078;15.536;2022-12-01T09:44:28;2.40;99.90
29687;DHT22;16599;47.078;15.536;2022-12-01T09:47:25;2.30;99.90
29687;DHT22;16599;47.078;15.536;2022-12-01T09:50:05;2.30;99.90
29687;DHT22;16599;47.078;15.536;2022-12-01T09:52:39;2.30;99.90
29687;DHT22;16599;47.078;15.536;2022-12-01T09:55:12;2.30;99.90
29687;DHT22;16599;47.078;15.536;2022-12-01T09:57:40;2.30;99.90
29687;DHT22;16599;47.078;15.536;2022-12-01T10:00:19;2.30;99.90
29687;DHT22;16599;47.078;15.536;2022-12-01T10:05:23;2.20;99.90
29687;DHT22;16599;47.078;15.536;2022-12-01T10:07:57;2.10;99.90
29687;DHT22;16599;47.078;15.536;2022-12-01T10:10:27;2.00;99.90
29687;DHT22;16599;47.078;15.536;2022-12-01T10:12:56;2.00;99.90
29687;DHT22;16599;47.078;15.536;2022-12-01T10:21:22;1.90;99.90
29687;DHT22;16599;47.078;15.536;2022-12-01T10:24:10;1.90;99.90
29687;DHT22;16599;47.078;15.536;2022-12-01T10:32:20;1.90;99.90
29687;DHT22;16599;47.078;15.536;2022-12-01T10:34:49;1.80;99.90
29687;DHT22;16599;47.078;15.536;2022-12-01T10:37:20;1.80;99.90
29687;DHT22;16599;47.078;15.536;2022-12-01T10:40:15;1.80;99.90
29687;DHT22;16599;47.078;15.536;2022-12-01T10:42:44;1.80;99.90
29687;DHT22;16599;47.078;15.536;2022-12-01T10:45:22;1.80;99.90
29687;DHT22;16599;47.078;15.536;2022-12-01T10:50:38;1.60;99.90
29687;DHT22;16599;47.078;15.536;2022-12-01T10:53:05;1.60;99.90
29687;DHT22;16599;47.078;15.536;2022-12-01T10:55:40;1.60;99.90
29687;DHT22;16599;47.078;15.536;2022-12-01T10:58:14;1.70;99.90
29687;DHT22;16599;47.078;15.536;2022-12-01T11:00:43;1.70;99.90
29687;DHT22;16599;47.078;15.536;2022-12-01T11:03:31;1.70;99.90
29687;DHT22;16599;47.078;15.536;2022-12-01T11:06:01;1.70;99.90
29687;DHT22;16599;47.078;15.536;2022-12-01T11:08:45;1.70;99.90
29687;DHT22;16599;47.078;15.536;2022-12-01T11:13:59;1.60;99.90
29687;DHT22;16599;47.078;15.536;2022-12-01T11:16:42;1.60;99.90
29687;DHT22;16599;47.078;15.536;2022-12-01T11:19:26;1.50;99.90
29687;DHT22;16599;47.078;15.536;2022-12-01T11:22:11;1.40;99.90
29687;DHT22;16599;47.078;15.536;2022-12-01T11:27:34;1.70;99.90
29687;DHT22;16599;47.078;15.536;2022-12-01T11:30:22;1.70;99.90
29687;DHT22;16599;47.078;15.536;2022-12-01T11:32:54;1.80;99.90
29687;DHT22;16599;47.078;15.536;2022-12-01T11:35:32;1.90;99.90
29687;DHT22;16599;47.078;15.536;2022-12-01T11:38:02;1.80;99.90
29687;DHT22;16599;47.078;15.536;2022-12-01T11:40:51;1.90;99.90
29687;DHT22;16599;47.078;15.536;2022-12-01T11:43:34;1.90;99.90
29687;DHT22;16599;47.078;15.536;2022-12-01T11:46:04;1.80;99.90
29687;DHT22;16599;47.078;15.536;2022-12-01T11:48:33;1.90;99.90
29687;DHT22;16599;47.078;15.536;2022-12-01T11:53:44;2.00;99.90
29687;DHT22;16599;47.078;15.536;2022-12-01T11:56:27;2.10;99.90
29687;DHT22;16599;47.078;15.536;2022-12-01T11:59:25;2.00;99.90
29687;DHT22;16599;47.078;15.536;2022-12-01T12:12:59;2.10;99.90
29687;DHT22;16599;47.078;15.536;2022-12-01T12:21:38;1.80;99.90
29687;DHT22;16599;47.078;15.536;2022-12-01T12:24:11;1.80;99.90
29687;DHT22;16599;47.078;15.536;2022-12-01T12:44:39;2.20;99.90
29687;DHT22;16599;47.078;15.536;2022-12-01T12:47:41;2.30;99.90
29687;DHT22;16599;47.078;15.536;2022-12-01T12:52:55;2.20;99.90
29687;DHT22;16599;47.078;15.536;2022-12-01T12:58:03;2.30;99.90
29687;DHT22;16599;47.078;15.536;2022-12-01T13:00:43;2.40;99.90
29687;DHT22;16599;47.078;15.536;2022-12-01T13:06:13;2.50;99.90
29687;DHT22;16599;47.078;15.536;2022-12-01T13:08:50;2.50;99.90
29687;DHT22;16599;47.078;15.536;2022-12-01T13:11:47;2.50;99.90
29687;DHT22;16599;47.078;15.536;2022-12-01T13:14:18;2.40;99.90
29687;DHT22;16599;47.078;15.536;2022-12-01T13:16:50;2.50;99.90
29687;DHT22;16599;47.078;15.536;2022-12-01T13:19:25;2.60;99.90
29687;DHT22;16599;47.078;15.536;2022-12-01T13:21:53;2.60;99.90
29687;DHT22;16599;47.078;15.536;2022-12-01T13:24:27;2.60;99.90
29687;DHT22;16599;47.078;15.536;2022-12-01T13:27:03;2.60;99.90
29687;DHT22;16599;47.078;15.536;2022-12-01T13:29:37;2.60;99.90
29687;DHT22;16599;47.078;15.536;2022-12-01T13:32:29;2.60;99.90
29687;DHT22;16599;47.078;15.536;2022-12-01T13:34:58;2.60;99.90
29687;DHT22;16599;47.078;15.536;2022-12-01T13:37:32;2.70;99.90
29687;DHT22;16599;47.078;15.536;2022-12-01T13:40:19;2.70;99.90
29687;DHT22;16599;47.078;15.536;2022-12-01T13:43:17;2.80;99.90
29687;DHT22;16599;47.078;15.536;2022-12-01T13:45:45;2.70;99.90
29687;DHT22;16599;47.078;15.536;2022-12-01T13:48:55;2.70;99.90
29687;DHT22;16599;47.078;15.536;2022-12-01T13:51:24;2.70;99.90
29687;DHT22;16599;47.078;15.536;2022-12-01T13:54:26;2.70;99.90
29687;DHT22;16599;47.078;15.536;2022-12-01T13:57:02;2.70;99.90
29687;DHT22;16599;47.078;15.536;2022-12-01T13:59:45;2.80;99.90
29687;DHT22;16599;47.078;15.536;2022-12-01T14:02:32;2.80;99.90
29687;DHT22;16599;47.078;15.536;2022-12-01T14:07:49;2.70;99.90
29687;DHT22;16599;47.078;15.536;2022-12-01T14:10:29;2.70;99.90
29687;DHT22;16599;47.078;15.536;2022-12-01T14:13:02;2.80;99.90
29687;DHT22;16599;47.078;15.536;2022-12-01T14:15:40;2.70;99.90
29687;DHT22;16599;47.078;15.536;2022-12-01T14:45:46;2.70;99.90
29687;DHT22;16599;47.078;15.536;2022-12-01T14:48:23;2.70;99.90
29687;DHT22;16599;47.078;15.536;2022-12-01T14:51:09;2.80;99.90
29687;DHT22;16599;47.078;15.536;2022-12-01T14:53:39;2.80;99.90
29687;DHT22;16599;47.078;15.536;2022-12-01T14:56:13;2.70;99.90
29687;DHT22;16599;47.078;15.536;2022-12-01T14:58:56;2.80;99.90
29687;DHT22;16599;47.078;15.536;2022-12-01T15:01:32;2.80;99.90
29687;DHT22;16599;47.078;15.536;2022-12-01T15:04:02;2.80;99.90
29687;DHT22;16599;47.078;15.536;2022-12-01T15:06:30;2.80;99.90
29687;DHT22;16599;47.078;15.536;2022-12-01T15:09:13;2.70;99.90
29687;DHT22;16599;47.078;15.536;2022-12-01T15:12:03;2.70;99.90
29687;DHT22;16599;47.078;15.536;2022-12-01T15:14:35;2.70;99.90
29687;DHT22;16599;47.078;15.536;2022-12-01T15:17:04;2.70;99.90
29687;DHT22;16599;47.078;15.536;2022-12-01T15:19:39;2.70;99.90
29687;DHT22;16599;47.078;15.536;2022-12-01T15:22:14;2.70;99.90
29687;DHT22;16599;47.078;15.536;2022-12-01T15:24:42;2.70;99.90
29687;DHT22;16599;47.078;15.536;2022-12-01T15:27:30;2.80;99.90
29687;DHT22;16599;47.078;15.536;2022-12-01T15:29:58;2.80;99.90
29687;DHT22;16599;47.078;15.536;2022-12-01T15:32:31;2.80;99.90
29687;DHT22;16599;47.078;15.536;2022-12-01T15:35:03;2.70;99.90
29687;DHT22;16599;47.078;15.536;2022-12-01T15:37:42;2.80;99.90
29687;DHT22;16599;47.078;15.536;2022-12-01T15:40:15;2.80;99.90
29687;DHT22;16599;47.078;15.536;2022-12-01T15:43:05;2.80;99.90
29687;DHT22;16599;47.078;15.536;2022-12-01T15:48:17;2.80;99.90
29687;DHT22;16599;47.078;15.536;2022-12-01T15:50:48;2.80;99.90
29687;DHT22;16599;47.078;15.536;2022-12-01T15:53:28;2.80;99.90
29687;DHT22;16599;47.078;15.536;2022-12-01T15:55:59;2.80;99.90
29687;DHT22;16599;47.078;15.536;2022-12-01T15:58:33;2.80;99.90
29687;DHT22;16599;47.078;15.536;2022-12-01T16:01:10;2.80;99.90
29687;DHT22;16599;47.078;15.536;2022-12-01T16:03:57;2.80;99.90
29687;DHT22;16599;47.078;15.536;2022-12-01T16:06:30;2.80;99.90
29687;DHT22;16599;47.078;15.536;2022-12-01T16:09:04;2.70;99.90
29687;DHT22;16599;47.078;15.536;2022-12-01T16:11:31;2.70;99.90
29687;DHT22;16599;47.078;15.536;2022-12-01T16:14:04;2.70;99.90
29687;DHT22;16599;47.078;15.536;2022-12-01T16:16:43;2.80;99.90
29687;DHT22;16599;47.078;15.536;2022-12-01T16:21:52;2.70;99.90
29687;DHT22;16599;47.078;15.536;2022-12-01T16:24:35;2.70;99.90
29687;DHT22;16599;47.078;15.536;2022-12-01T16:27:14;2.70;99.90
29687;DHT22;16599;47.078;15.536;2022-12-01T16:29:51;2.70;99.90
29687;DHT22;16599;47.078;15.536;2022-12-01T16:32:40;2.80;99.90
29687;DHT22;16599;47.078;15.536;2022-12-01T16:35:29;2.80;99.90
29687;DHT22;16599;47.078;15.536;2022-12-01T16:37:58;2.80;99.90
29687;DHT22;16599;47.078;15.536;2022-12-01T16:40:26;2.70;99.90
29687;DHT22;16599;47.078;15.536;2022-12-01T16:42:53;2.70;99.90
29687;DHT22;16599;47.078;15.536;2022-12-01T16:45:20;2.70;99.90
29687;DHT22;16599;47.078;15.536;2022-12-01T16:47:49;2.70;99.90
29687;DHT22;16599;47.078;15.536;2022-12-01T16:50:18;2.70;99.90
29687;DHT22;16599;47.078;15.536;2022-12-01T16:52:45;2.70;99.90
29687;DHT22;16599;47.078;15.536;2022-12-01T16:55:25;2.70;99.90
29687;DHT22;16599;47.078;15.536;2022-12-01T16:57:53;2.70;99.90
29687;DHT22;16599;47.078;15.536;2022-12-01T17:00:21;2.60;99.90
29687;DHT22;16599;47.078;15.536;2022-12-01T17:02:49;2.60;99.90
29687;DHT22;16599;47.078;15.536;2022-12-01T17:05:16;2.60;99.90
29687;DHT22;16599;47.078;15.536;2022-12-01T17:07:43;2.50;99.90
29687;DHT22;16599;47.078;15.536;2022-12-01T17:10:10;2.60;99.90
29687;DHT22;16599;47.078;15.536;2022-12-01T17:12:37;2.50;99.90
29687;DHT22;16599;47.078;15.536;2022-12-01T17:15:05;2.50;99.90
29687;DHT22;16599;47.078;15.536;2022-12-01T17:17:32;2.50;99.90
29687;DHT22;16599;47.078;15.536;2022-12-01T17:19:59;2.50;99.90
29687;DHT22;16599;47.078;15.536;2022-12-01T17:22:25;2.40;99.90
29687;DHT22;16599;47.078;15.536;2022-12-01T17:24:52;2.40;99.90
29687;DHT22;16599;47.078;15.536;2022-12-01T17:27:22;2.50;99.90
29687;DHT22;16599;47.078;15.536;2022-12-01T17:29:49;2.50;99.90
29687;DHT22;16599;47.078;15.536;2022-12-01T17:32:15;2.40;99.90
29687;DHT22;16599;47.078;15.536;2022-12-01T17:34:42;2.40;99.90
29687;DHT22;16599;47.078;15.536;2022-12-01T17:37:09;2.50;99.90
29687;DHT22;16599;47.078;15.536;2022-12-01T17:39:41;2.40;99.90
29687;DHT22;16599;47.078;15.536;2022-12-01T17:42:08;2.50;99.90
29687;DHT22;16599;47.078;15.536;2022-12-01T17:44:35;2.50;99.90
29687;DHT22;16599;47.078;15.536;2022-12-01T17:47:02;2.50;99.90
29687;DHT22;16599;47.078;15.536;2022-12-01T17:49:29;2.60;99.90
29687;DHT22;16599;47.078;15.536;2022-12-01T17:51:56;2.60;99.90
29687;DHT22;16599;47.078;15.536;2022-12-01T17:54:23;2.60;99.90
29687;DHT22;16599;47.078;15.536;2022-12-01T17:56:50;2.50;99.90
29687;DHT22;16599;47.078;15.536;2022-12-01T17:59:16;2.50;99.90
29687;DHT22;16599;47.078;15.536;2022-12-01T18:01:43;2.50;99.90
29687;DHT22;16599;47.078;15.536;2022-12-01T18:04:10;2.60;99.90
29687;DHT22;16599;47.078;15.536;2022-12-01T18:06:37;2.60;99.90
29687;DHT22;16599;47.078;15.536;2022-12-01T18:09:04;2.60;99.90
29687;DHT22;16599;47.078;15.536;2022-12-01T18:11:31;2.60;99.90
29687;DHT22;16599;47.078;15.536;2022-12-01T18:13:59;2.60;99.90
29687;DHT22;16599;47.078;15.536;2022-12-01T18:16:30;2.60;99.90